Time;durP1;ratioP1;P1;durP2;ratioP2;P2;SDS_P1;SDS_P2;PMS_P1;PMS_P2;Temp;Humidity;BMP_temperature;BMP_pressure;BME280_temperature;BME280_humidity;BME280_pressure;Samples;Min_cycle;Max_cycle;Signal;HPM_P1;HPM_P2
2021/05/27 00:02:01;;;;;;;3.92;1.20;;;20.00;57.50;;;;;;5074133;28;20028;-60
2021/05/27 00:04:29;;;;;;;2.30;1.20;;;20.10;56.50;;;;;;5073351;28;20198;-63
2021/05/27 00:06:56;;;;;;;3.72;1.63;;;20.20;58.90;;;;;;5074134;28;20426;-62
2021/05/27 00:09:23;;;;;;;3.17;1.27;;;20.30;57.20;;;;;;5073718;28;20052;-64
2021/05/27 00:11:51;;;;;;;5.07;1.73;;;20.40;55.70;;;;;;5073416;28;20045;-63
2021/05/27 00:14:18;;;;;;;2.90;1.23;;;20.40;56.50;;;;;;5073872;28;20538;-64
2021/05/27 00:16:45;;;;;;;6.78;1.83;;;20.50;57.60;;;;;;5073495;28;20040;-62
2021/05/27 00:19:13;;;;;;;2.25;1.17;;;20.60;54.60;;;;;;5073265;28;20119;-61
2021/05/27 00:21:40;;;;;;;4.97;1.98;;;20.70;55.50;;;;;;5073372;28;20476;-63
2021/05/27 00:24:08;;;;;;;2.88;1.38;;;20.80;53.30;;;;;;5072722;28;20019;-62
2021/05/27 00:26:35;;;;;;;4.43;1.45;;;20.80;55.80;;;;;;5071810;28;20044;-62
2021/05/27 00:29:03;;;;;;;3.10;1.17;;;20.90;53.70;;;;;;5072512;28;20028;-60
2021/05/27 00:31:30;;;;;;;3.60;1.13;;;21.00;53.90;;;;;;5071743;28;20035;-50
2021/05/27 00:33:57;;;;;;;5.25;1.58;;;21.10;55.90;;;;;;5072916;28;20029;-61
2021/05/27 00:36:25;;;;;;;3.45;1.30;;;21.20;54.90;;;;;;5071069;28;20020;-56
2021/05/27 00:38:52;;;;;;;5.15;1.90;;;21.20;54.00;;;;;;5073256;28;20025;-58
2021/05/27 00:41:19;;;;;;;2.95;1.00;;;21.40;55.00;;;;;;5073352;28;20035;-64
2021/05/27 00:43:47;;;;;;;4.65;1.38;;;21.50;52.70;;;;;;5072647;28;20097;-62
2021/05/27 00:46:14;;;;;;;4.90;1.30;;;21.60;54.10;;;;;;5073080;28;20035;-56
2021/05/27 00:48:58;;;;;;;1.85;0.90;;;21.60;54.50;;;;;;5072824;28;20060;-59
2021/05/27 00:51:29;;;;;;;4.25;1.40;;;21.70;54.80;;;;;;5071020;28;20108;-60
2021/05/27 00:54:00;;;;;;;2.38;1.15;;;21.80;54.70;;;;;;5072785;28;20463;-61
2021/05/27 00:56:28;;;;;;;4.10;1.30;;;21.90;53.10;;;;;;5073150;28;20048;-63
2021/05/27 00:58:55;;;;;;;1.85;1.10;;;21.90;52.20;;;;;;5072269;28;20397;-59
2021/05/27 01:01:23;;;;;;;5.32;1.10;;;22.00;51.90;;;;;;5072688;28;20020;-52
2021/05/27 01:03:51;;;;;;;4.35;1.00;;;22.10;53.90;;;;;;5072901;28;20041;-56
2021/05/27 01:06:18;;;;;;;1.80;0.98;;;22.20;53.40;;;;;;5072786;28;20055;-61
2021/05/27 01:08:46;;;;;;;4.35;1.70;;;22.30;54.40;;;;;;5072159;28;20044;-54
2021/05/27 01:11:15;;;;;;;4.95;1.15;;;22.40;50.10;;;;;;5071581;28;20048;-60
2021/05/27 01:13:43;;;;;;;4.50;1.20;;;22.40;51.40;;;;;;5071689;28;20446;-56
2021/05/27 01:16:19;;;;;;;5.40;0.93;;;22.50;52.90;;;;;;5072365;28;20107;-58
2021/05/27 01:18:47;;;;;;;2.80;1.13;;;22.50;49.40;;;;;;5062922;28;20028;-59
2021/05/27 01:21:16;;;;;;;7.70;1.33;;;22.60;50.20;;;;;;5071967;28;20197;-59
2021/05/27 01:23:44;;;;;;;2.40;0.93;;;22.60;52.30;;;;;;5072067;28;20203;-48
2021/05/27 01:26:14;;;;;;;3.17;1.02;;;22.60;51.30;;;;;;5072397;28;20492;-62
2021/05/27 01:28:42;;;;;;;4.07;1.20;;;22.60;52.10;;;;;;5072138;28;20061;-54
2021/05/27 01:31:10;;;;;;;3.47;1.10;;;22.60;51.90;;;;;;5072125;28;20032;-61
2021/05/27 01:33:39;;;;;;;2.72;1.05;;;22.70;50.60;;;;;;5060527;28;20056;-54
2021/05/27 01:36:06;;;;;;;3.25;1.05;;;22.80;50.10;;;;;;5070559;28;20254;-53
2021/05/27 01:38:34;;;;;;;2.90;1.00;;;22.80;53.20;;;;;;5072078;28;20420;-56
2021/05/27 01:41:03;;;;;;;2.45;1.10;;;22.90;51.60;;;;;;5072306;28;20024;-61
2021/05/27 01:43:31;;;;;;;2.58;1.15;;;23.00;49.50;;;;;;5072188;28;20078;-62
2021/05/27 01:45:59;;;;;;;1.80;1.05;;;23.00;52.30;;;;;;5072014;28;20351;-62
2021/05/27 01:48:26;;;;;;;6.47;1.25;;;23.10;51.80;;;;;;5070978;28;20047;-66
2021/05/27 01:50:54;;;;;;;1.80;0.98;;;23.10;50.70;;;;;;5071407;28;20032;-56
2021/05/27 01:53:21;;;;;;;3.25;0.93;;;23.10;49.10;;;;;;5071734;28;20025;-58
2021/05/27 01:55:50;;;;;;;3.67;1.30;;;23.10;49.00;;;;;;5071854;28;20027;-61
2021/05/27 01:58:19;;;;;;;2.90;1.38;;;23.20;48.30;;;;;;5071794;28;20090;-59
2021/05/27 02:00:46;;;;;;;2.17;1.17;;;23.20;51.90;;;;;;5071311;28;20024;-61
2021/05/27 02:03:13;;;;;;;1.92;0.77;;;23.40;49.70;;;;;;5072296;28;20483;-56
2021/05/27 02:05:41;;;;;;;4.65;1.48;;;23.50;47.60;;;;;;5064649;28;20066;-50
2021/05/27 02:08:24;;;;;;;2.60;0.65;;;23.50;48.00;;;;;;5070476;28;20025;-61
2021/05/27 02:10:52;;;;;;;1.00;0.70;;;23.60;48.70;;;;;;5066522;28;20442;-48
2021/05/27 02:13:19;;;;;;;2.42;0.90;;;23.50;51.70;;;;;;5068434;28;20024;-58
2021/05/27 02:15:47;;;;;;;2.70;1.48;;;23.60;49.00;;;;;;5068889;28;20086;-46
2021/05/27 02:18:14;;;;;;;2.30;1.23;;;23.70;48.80;;;;;;5067981;28;20028;-51
2021/05/27 02:20:41;;;;;;;3.72;2.35;;;23.70;50.50;;;;;;5065679;28;20102;-47
2021/05/27 02:23:09;;;;;;;11.48;6.22;;;23.80;50.30;;;;;;5069964;28;20085;-46
2021/05/27 02:25:36;;;;;;;8.98;6.07;;;23.70;50.30;;;;;;5073262;28;20021;-50
2021/05/27 02:28:04;;;;;;;10.05;6.82;;;23.90;48.60;;;;;;5072543;28;20036;-56
2021/05/27 02:30:31;;;;;;;9.18;5.82;;;23.90;52.20;;;;;;5066552;28;20024;-48
2021/05/27 02:32:59;;;;;;;10.10;6.15;;;24.00;50.30;;;;;;5072497;28;20332;-48
2021/05/27 02:35:27;;;;;;;11.38;7.38;;;23.90;50.50;;;;;;5071969;28;20367;-56
2021/05/27 02:37:54;;;;;;;7.15;4.63;;;24.00;51.40;;;;;;5070610;28;20024;-50
2021/05/27 02:40:22;;;;;;;7.22;5.00;;;23.90;47.20;;;;;;5071741;28;20039;-50
2021/05/27 02:42:49;;;;;;;10.13;5.05;;;24.10;49.30;;;;;;5069336;28;20047;-47
2021/05/27 02:45:16;;;;;;;8.23;4.28;;;24.20;48.40;;;;;;5072185;28;20021;-51
2021/05/27 02:47:44;;;;;;;6.80;4.25;;;24.20;49.30;;;;;;5072259;28;20440;-54
2021/05/27 02:50:12;;;;;;;4.75;3.55;;;24.20;49.20;;;;;;5072274;28;20017;-53
2021/05/27 02:52:39;;;;;;;5.72;4.05;;;24.30;48.00;;;;;;5068051;28;20070;-54
2021/05/27 02:55:07;;;;;;;7.95;4.50;;;24.40;47.70;;;;;;5073107;28;20754;-52
2021/05/27 02:57:34;;;;;;;6.05;4.00;;;24.20;49.90;;;;;;5073017;28;20062;-55
2021/05/27 03:00:02;;;;;;;8.27;4.63;;;24.40;49.70;;;;;;5071402;28;20020;-50
2021/05/27 03:02:29;;;;;;;6.75;3.97;;;24.40;50.00;;;;;;5067122;28;20258;-48
2021/05/27 03:04:57;;;;;;;7.72;4.25;;;24.50;46.90;;;;;;5071456;28;20511;-52
2021/05/27 03:07:24;;;;;;;13.45;3.88;;;24.50;50.90;;;;;;5070543;28;20406;-48
2021/05/27 03:09:52;;;;;;;7.65;3.15;;;24.50;46.20;;;;;;5070161;28;20066;-46
2021/05/27 03:12:20;;;;;;;4.43;2.83;;;24.60;46.70;;;;;;5065200;28;20375;-57
2021/05/27 03:14:47;;;;;;;4.82;2.95;;;24.60;48.70;;;;;;5069449;28;20033;-53
2021/05/27 03:17:14;;;;;;;9.80;3.08;;;24.60;48.00;;;;;;5070041;28;20154;-55
2021/05/27 03:19:42;;;;;;;6.80;3.72;;;24.50;48.70;;;;;;5070092;28;20120;-48
2021/05/27 03:22:12;;;;;;;7.35;3.75;;;24.50;48.60;;;;;;5067351;28;20029;-54
2021/05/27 03:24:39;;;;;;;4.65;2.78;;;24.60;49.70;;;;;;5068944;28;20463;-47
2021/05/27 03:27:07;;;;;;;5.85;2.88;;;24.60;47.00;;;;;;5071793;28;20186;-45
2021/05/27 03:29:34;;;;;;;6.43;3.00;;;24.60;48.00;;;;;;5072198;28;20032;-52
2021/05/27 03:32:02;;;;;;;4.85;2.58;;;24.60;47.80;;;;;;5068026;28;20119;-53
2021/05/27 03:34:29;;;;;;;4.43;2.15;;;24.60;48.80;;;;;;5071415;28;20024;-48
2021/05/27 03:36:56;;;;;;;7.72;2.63;;;24.50;49.30;;;;;;5071563;28;20036;-51
2021/05/27 03:39:24;;;;;;;4.68;2.67;;;24.50;48.00;;;;;;5070903;28;20135;-47
2021/05/27 03:41:51;;;;;;;4.97;2.42;;;24.50;49.20;;;;;;5068043;28;20039;-50
2021/05/27 03:44:18;;;;;;;4.85;2.40;;;24.40;46.80;;;;;;5071801;28;20098;-45
2021/05/27 03:46:46;;;;;;;5.80;3.10;;;24.40;48.50;;;;;;5071775;28;20455;-52
2021/05/27 03:49:14;;;;;;;6.55;2.63;;;24.40;49.10;;;;;;5074327;28;20025;-56
2021/05/27 03:51:41;;;;;;;4.35;2.35;;;24.40;49.20;;;;;;5073812;28;20111;-49
2021/05/27 03:54:09;;;;;;;4.13;1.63;;;24.40;47.60;;;;;;5073788;28;20063;-54
2021/05/27 03:56:36;;;;;;;4.18;1.70;;;24.30;48.80;;;;;;5073104;28;20108;-58
2021/05/27 04:01:49;;;;;;;6.45;1.95;;;24.40;48.50;;;;;;5073849;28;20097;-56
2021/05/27 04:07:10;;;;;;;3.85;1.75;;;24.40;47.70;;;;;;5073894;28;20374;-55
2021/05/27 04:09:42;;;;;;;3.40;2.05;;;24.40;46.60;;;;;;5074063;28;20069;-55
2021/05/27 04:17:43;;;;;;;3.15;1.90;;;24.50;50.90;;;;;;5073768;28;20394;-60
2021/05/27 04:20:11;;;;;;;4.00;1.70;;;24.50;50.70;;;;;;5073590;28;20408;-60
2021/05/27 04:22:44;;;;;;;2.20;1.20;;;24.60;49.20;;;;;;5073819;28;20028;-55
2021/05/27 04:25:12;;;;;;;2.22;1.40;;;24.50;47.60;;;;;;5073271;28;20025;-60
2021/05/27 04:27:41;;;;;;;4.07;1.63;;;24.60;50.10;;;;;;5073219;28;20574;-63
2021/05/27 04:30:18;;;;;;;4.30;2.25;;;24.60;51.80;;;;;;5072714;28;20374;-58
2021/05/27 04:33:04;;;;;;;3.05;1.33;;;24.60;51.50;;;;;;5072951;28;20438;-58
2021/05/27 04:35:42;;;;;;;8.10;1.77;;;24.70;48.40;;;;;;5072577;28;20024;-61
2021/05/27 04:38:15;;;;;;;3.67;1.20;;;24.90;51.30;;;;;;5062353;28;20383;-61
2021/05/27 04:40:49;;;;;;;2.25;1.30;;;24.90;51.40;;;;;;5072313;28;20280;-58
2021/05/27 04:43:19;;;;;;;3.28;1.70;;;24.90;50.80;;;;;;5065317;28;20048;-56
2021/05/27 04:45:47;;;;;;;3.80;1.52;;;24.90;51.10;;;;;;5070174;28;20105;-55
2021/05/27 04:48:15;;;;;;;3.45;1.27;;;24.90;50.50;;;;;;5067346;28;20040;-51
2021/05/27 04:50:45;;;;;;;2.85;1.35;;;25.00;46.80;;;;;;5072331;28;20403;-46
2021/05/27 04:53:13;;;;;;;2.15;1.42;;;25.00;50.60;;;;;;5068612;28;20040;-53
2021/05/27 04:55:40;;;;;;;2.88;1.45;;;25.00;48.80;;;;;;5069790;28;20033;-47
2021/05/27 04:58:08;;;;;;;3.50;1.60;;;25.00;50.10;;;;;;5066253;28;20036;-50
2021/05/27 05:00:36;;;;;;;4.38;1.35;;;24.90;50.60;;;;;;5068907;28;20037;-53
2021/05/27 05:03:04;;;;;;;2.85;1.30;;;25.00;51.00;;;;;;5069157;28;20482;-49
2021/05/27 05:05:34;;;;;;;5.05;1.90;;;25.00;50.10;;;;;;5068268;28;20435;-49
2021/05/27 05:08:02;;;;;;;4.13;2.95;;;24.90;45.30;;;;;;5064465;28;20478;-51
2021/05/27 05:10:31;;;;;;;8.77;2.03;;;24.70;51.50;;;;;;5068191;28;20154;-55
2021/05/27 05:12:58;;;;;;;5.13;2.67;;;24.60;48.20;;;;;;5066237;28;20116;-42
2021/05/27 05:15:33;;;;;;;5.75;2.80;;;24.60;50.10;;;;;;5069650;28;20025;-49
2021/05/27 05:18:09;;;;;;;7.90;4.75;;;24.60;50.60;;;;;;5065397;28;20024;-49
2021/05/27 05:20:39;;;;;;;3.90;3.15;;;24.60;50.00;;;;;;5065803;28;20029;-53
2021/05/27 05:23:07;;;;;;;6.72;3.80;;;24.60;48.20;;;;;;5069751;28;20012;-46
2021/05/27 05:25:37;;;;;;;8.52;4.88;;;24.50;47.20;;;;;;5068901;28;20453;-52
2021/05/27 05:28:06;;;;;;;4.63;3.67;;;24.50;51.60;;;;;;5062887;28;20243;-55
2021/05/27 05:30:33;;;;;;;6.32;3.70;;;24.50;51.90;;;;;;5067370;28;20491;-55
2021/05/27 05:33:01;;;;;;;4.38;3.95;;;24.40;50.60;;;;;;5069075;28;20054;-50
2021/05/27 05:35:30;;;;;;;3.40;3.00;;;24.30;51.70;;;;;;5068865;28;20044;-51
2021/05/27 05:37:58;;;;;;;7.28;5.70;;;24.30;49.10;;;;;;5065550;28;20028;-53
2021/05/27 05:40:28;;;;;;;14.35;6.32;;;24.10;50.70;;;;;;5068401;28;20036;-62
2021/05/27 05:42:56;;;;;;;8.85;4.95;;;23.90;51.80;;;;;;5068681;28;20043;-56
2021/05/27 05:45:25;;;;;;;6.78;5.22;;;23.70;49.70;;;;;;5068877;28;20038;-47
2021/05/27 05:47:53;;;;;;;6.57;5.10;;;23.40;49.10;;;;;;5064778;28;20039;-59
2021/05/27 05:53:10;;;;;;;7.18;6.45;;;23.00;54.20;;;;;;5060017;28;20043;-63
2021/05/27 05:55:38;;;;;;;7.20;6.00;;;22.70;51.80;;;;;;5070251;28;20021;-56
2021/05/27 05:58:06;;;;;;;10.32;5.57;;;22.60;55.30;;;;;;5070073;28;20502;-59
2021/05/27 06:00:35;;;;;;;10.55;6.85;;;22.40;53.00;;;;;;5070660;28;20048;-64
2021/05/27 06:03:04;;;;;;;12.73;6.22;;;22.20;53.10;;;;;;5071351;28;20417;-59
2021/05/27 06:05:32;;;;;;;7.13;5.93;;;22.10;55.50;;;;;;5071715;28;20031;-57
2021/05/27 06:07:59;;;;;;;10.45;5.43;;;22.00;55.50;;;;;;5070479;28;20440;-61
2021/05/27 06:10:27;;;;;;;8.30;5.72;;;21.80;56.20;;;;;;5071007;28;20065;-58
2021/05/27 06:12:56;;;;;;;9.90;6.85;;;21.70;54.30;;;;;;5071152;28;20078;-62
2021/05/27 06:15:25;;;;;;;7.88;5.55;;;21.60;57.40;;;;;;5068877;28;20214;-68
2021/05/27 06:17:53;;;;;;;11.98;5.90;;;21.40;56.60;;;;;;5070580;28;20037;-60
2021/05/27 06:20:22;;;;;;;11.98;4.50;;;21.40;54.60;;;;;;5071169;28;20424;-55
2021/05/27 06:22:53;;;;;;;9.18;4.90;;;21.20;55.90;;;;;;5069706;28;20089;-62
2021/05/27 06:25:22;;;;;;;9.13;5.03;;;21.10;58.30;;;;;;5070800;28;20078;-62
2021/05/27 06:27:51;;;;;;;8.02;5.10;;;21.10;57.60;;;;;;5070419;28;20050;-56
2021/05/27 06:30:19;;;;;;;5.00;4.47;;;21.00;56.80;;;;;;5071052;28;20027;-60
2021/05/27 06:32:47;;;;;;;7.72;5.13;;;20.90;59.60;;;;;;5070997;28;20395;-57
2021/05/27 06:35:15;;;;;;;10.25;4.13;;;20.90;60.30;;;;;;5071484;28;20032;-62
2021/05/27 06:37:43;;;;;;;6.90;3.97;;;20.80;59.80;;;;;;5071248;28;20067;-61
2021/05/27 06:40:19;;;;;;;9.60;4.88;;;20.70;59.20;;;;;;5070337;28;20101;-61
2021/05/27 06:42:48;;;;;;;5.35;3.83;;;20.70;60.50;;;;;;5059172;28;20024;-63
2021/05/27 06:45:17;;;;;;;8.02;4.20;;;20.70;59.50;;;;;;5071205;28;20032;-53
2021/05/27 06:47:45;;;;;;;6.68;3.75;;;20.60;59.50;;;;;;5070705;28;20257;-54
2021/05/27 06:50:13;;;;;;;6.78;2.85;;;20.70;60.10;;;;;;5060387;28;20029;-59
2021/05/27 06:52:41;;;;;;;17.52;4.47;;;20.50;56.60;;;;;;5063998;28;20051;-52
2021/05/27 06:55:10;;;;;;;14.90;5.40;;;20.40;53.90;;;;;;5068031;28;20024;-54
2021/05/27 06:57:37;;;;;;;4.45;3.53;;;20.30;55.90;;;;;;5071017;28;20047;-55
2021/05/27 07:00:06;;;;;;;10.45;2.30;;;20.30;53.40;;;;;;5066183;28;20021;-51
2021/05/27 07:02:34;;;;;;;10.43;3.28;;;20.20;49.50;;;;;;5068486;28;20029;-54
2021/05/27 07:05:02;;;;;;;7.72;2.35;;;20.10;51.80;;;;;;5067908;28;20526;-49
2021/05/27 07:07:29;;;;;;;4.93;2.55;;;20.00;56.60;;;;;;5068323;28;20032;-56
2021/05/27 07:09:57;;;;;;;9.55;3.40;;;20.00;58.00;;;;;;5068075;28;20429;-52
2021/05/27 07:12:24;;;;;;;11.13;3.65;;;19.90;57.60;;;;;;5071644;28;20144;-60
2021/05/27 07:14:53;;;;;;;18.25;3.50;;;19.80;54.80;;;;;;5071028;28;20053;-53
2021/05/27 07:17:20;;;;;;;5.82;2.28;;;19.70;51.20;;;;;;5062919;28;20029;-53
2021/05/27 07:19:49;;;;;;;8.10;2.42;;;19.70;50.60;;;;;;5073656;28;20202;-55
2021/05/27 07:22:16;;;;;;;12.18;3.75;;;19.60;52.90;;;;;;5073574;28;20028;-58
2021/05/27 07:24:44;;;;;;;9.25;2.80;;;19.40;54.20;;;;;;5073528;28;20036;-59
2021/05/27 07:27:12;;;;;;;7.43;2.47;;;19.40;52.60;;;;;;5074026;28;20052;-59
2021/05/27 07:29:39;;;;;;;7.47;2.25;;;19.40;52.20;;;;;;5073323;28;20089;-54
2021/05/27 07:32:07;;;;;;;5.10;3.83;;;19.40;55.50;;;;;;5072457;28;20028;-56
2021/05/27 07:34:34;;;;;;;8.15;3.03;;;19.40;60.00;;;;;;5073042;28;20037;-57
2021/05/27 07:37:02;;;;;;;14.90;3.70;;;19.40;56.80;;;;;;5073462;28;20028;-52
2021/05/27 07:39:29;;;;;;;7.85;4.28;;;19.30;57.20;;;;;;5071804;28;20344;-58
2021/05/27 07:41:56;;;;;;;7.70;4.72;;;19.30;57.80;;;;;;5073528;28;20056;-62
2021/05/27 07:44:24;;;;;;;16.13;5.40;;;19.30;60.80;;;;;;5073854;28;20025;-52
2021/05/27 07:46:51;;;;;;;7.00;5.47;;;19.40;61.60;;;;;;5073202;28;20359;-50
2021/05/27 07:49:18;;;;;;;16.77;6.13;;;19.40;57.60;;;;;;5072889;28;20108;-57
2021/05/27 07:51:47;;;;;;;7.32;4.22;;;19.40;56.50;;;;;;5073671;28;20471;-58
2021/05/27 07:54:14;;;;;;;16.42;6.78;;;19.40;60.00;;;;;;5073170;28;20025;-57
2021/05/27 07:56:41;;;;;;;9.43;4.28;;;19.40;55.10;;;;;;5071848;28;20447;-53
2021/05/27 07:59:09;;;;;;;24.02;5.90;;;19.40;60.00;;;;;;5073247;28;20367;-57
2021/05/27 08:01:36;;;;;;;5.85;4.90;;;19.40;56.10;;;;;;5072045;28;20496;-59
2021/05/27 08:04:04;;;;;;;9.77;5.13;;;19.40;60.10;;;;;;5073232;28;20466;-49
2021/05/27 08:06:31;;;;;;;9.57;4.82;;;19.50;59.00;;;;;;5072501;28;20040;-57
2021/05/27 08:08:59;;;;;;;10.05;7.20;;;19.50;56.50;;;;;;5072787;28;20498;-62
2021/05/27 08:11:26;;;;;;;8.48;4.75;;;19.40;60.30;;;;;;5072731;28;20044;-53
2021/05/27 08:13:53;;;;;;;12.63;7.95;;;19.30;58.20;;;;;;5071362;28;20711;-55
2021/05/27 08:16:21;;;;;;;9.43;7.88;;;19.20;53.20;;;;;;5072848;28;20112;-50
2021/05/27 08:18:48;;;;;;;10.40;5.20;;;19.00;53.40;;;;;;5072216;28;20031;-54
2021/05/27 08:21:17;;;;;;;18.50;8.45;;;19.00;56.40;;;;;;5071955;28;20137;-56
2021/05/27 08:23:45;;;;;;;12.80;3.22;;;18.90;55.60;;;;;;5070834;28;20047;-58
2021/05/27 08:26:13;;;;;;;8.23;6.97;;;18.90;51.20;;;;;;5062006;28;20112;-53
2021/05/27 08:28:40;;;;;;;13.60;6.55;;;19.00;62.40;;;;;;5072231;28;20028;-53
2021/05/27 08:31:08;;;;;;;8.48;5.85;;;19.10;60.70;;;;;;5072007;28;20120;-60
2021/05/27 08:33:35;;;;;;;11.75;4.65;;;19.20;61.90;;;;;;5072276;28;20107;-55
2021/05/27 08:36:03;;;;;;;15.40;4.65;;;19.30;59.90;;;;;;5061999;28;20036;-49
2021/05/27 08:38:30;;;;;;;11.50;4.95;;;19.40;60.40;;;;;;5070825;28;20082;-60
2021/05/27 08:40:58;;;;;;;28.92;5.68;;;19.40;58.80;;;;;;5070127;28;20032;-51
2021/05/27 08:43:28;;;;;;;8.93;3.70;;;19.40;60.20;;;;;;5066554;28;20029;-50
2021/05/27 08:45:57;;;;;;;12.07;4.45;;;19.40;58.70;;;;;;5070269;28;20029;-53
2021/05/27 08:48:24;;;;;;;19.05;4.65;;;19.30;58.80;;;;;;5071812;28;20078;-55
2021/05/27 08:50:52;;;;;;;15.38;4.13;;;19.30;55.90;;;;;;5072609;28;20025;-60
2021/05/27 08:53:20;;;;;;;18.02;5.25;;;19.20;59.50;;;;;;5071590;28;20460;-55
2021/05/27 08:55:49;;;;;;;16.98;4.85;;;19.20;61.50;;;;;;5072158;28;20435;-56
2021/05/27 08:58:17;;;;;;;10.15;4.15;;;19.20;61.20;;;;;;5072144;28;20107;-59
2021/05/27 09:00:45;;;;;;;24.48;4.20;;;19.20;59.90;;;;;;5072426;28;20028;-53
2021/05/27 09:03:18;;;;;;;17.48;4.05;;;19.20;60.10;;;;;;5072015;28;20103;-52
2021/05/27 09:05:46;;;;;;;8.75;3.00;;;19.20;62.30;;;;;;5058910;28;20490;-51
2021/05/27 09:08:36;;;;;;;9.00;3.28;;;19.20;59.60;;;;;;5064967;28;20083;-47
2021/05/27 09:11:05;;;;;;;11.50;3.13;;;19.20;61.30;;;;;;5065281;28;20048;-47
2021/05/27 09:13:33;;;;;;;13.35;3.78;;;19.20;59.10;;;;;;5065541;28;20028;-60
2021/05/27 09:16:12;;;;;;;9.10;4.07;;;19.20;59.70;;;;;;5065894;28;20041;-53
2021/05/27 09:18:41;;;;;;;8.85;4.20;;;19.20;57.60;;;;;;5062825;28;20098;-57
2021/05/27 09:21:11;;;;;;;11.85;4.82;;;19.10;58.20;;;;;;5065558;28;20047;-46
2021/05/27 09:23:47;;;;;;;15.00;4.32;;;19.10;60.10;;;;;;5070347;28;20366;-53
2021/05/27 09:26:16;;;;;;;14.30;3.95;;;19.10;60.10;;;;;;5065391;28;20051;-53
2021/05/27 09:28:45;;;;;;;11.60;3.20;;;19.10;58.10;;;;;;5070621;28;20033;-49
2021/05/27 09:31:19;;;;;;;17.05;4.35;;;19.00;58.30;;;;;;5066482;28;20021;-57
2021/05/27 09:33:48;;;;;;;18.13;4.35;;;19.00;58.60;;;;;;5062614;28;20077;-45
2021/05/27 09:36:23;;;;;;;17.95;4.32;;;19.00;62.20;;;;;;5060592;28;20115;-55
2021/05/27 09:39:01;;;;;;;23.17;3.83;;;19.00;61.20;;;;;;5065026;28;20109;-49
2021/05/27 09:41:34;;;;;;;10.90;3.20;;;19.00;57.90;;;;;;5069044;28;20124;-56
2021/05/27 09:44:07;;;;;;;13.38;3.20;;;18.90;57.30;;;;;;5067014;28;20020;-51
2021/05/27 09:46:55;;;;;;;13.60;4.18;;;18.90;57.30;;;;;;5067262;28;20093;-56
2021/05/27 09:49:24;;;;;;;12.43;3.47;;;18.90;58.70;;;;;;5071225;28;20078;-57
2021/05/27 09:51:57;;;;;;;26.95;3.65;;;18.90;58.40;;;;;;5071743;28;20029;-53
2021/05/27 09:54:25;;;;;;;13.05;3.22;;;18.90;58.60;;;;;;5071065;28;20360;-51
2021/05/27 09:56:52;;;;;;;23.17;3.55;;;18.90;57.70;;;;;;5070289;28;20435;-61
2021/05/27 09:59:20;;;;;;;8.63;3.58;;;18.90;59.40;;;;;;5071841;28;20116;-62
2021/05/27 10:02:14;;;;;;;12.75;3.05;;;18.80;58.10;;;;;;5065070;28;20382;-53
2021/05/27 10:04:56;;;;;;;11.85;2.83;;;18.80;59.80;;;;;;5057321;28;20025;-54
2021/05/27 10:07:47;;;;;;;13.93;3.63;;;18.80;59.00;;;;;;5071286;28;20047;-61
2021/05/27 10:10:19;;;;;;;15.68;3.28;;;18.70;59.70;;;;;;5070979;28;20024;-58
2021/05/27 10:12:50;;;;;;;16.65;3.47;;;18.70;60.60;;;;;;5067241;28;20025;-50
2021/05/27 10:15:23;;;;;;;19.15;3.28;;;18.80;62.00;;;;;;5059171;28;20032;-56
2021/05/27 10:17:53;;;;;;;11.82;3.30;;;18.70;61.60;;;;;;5071140;28;20024;-63
2021/05/27 10:20:26;;;;;;;8.20;2.85;;;18.70;61.20;;;;;;5071148;28;20043;-54
2021/05/27 10:22:56;;;;;;;9.55;2.65;;;18.70;59.70;;;;;;5071501;28;20155;-55
2021/05/27 10:25:25;;;;;;;10.45;3.20;;;18.70;60.60;;;;;;5070635;28;20025;-52
2021/05/27 10:27:55;;;;;;;11.65;2.70;;;18.70;61.60;;;;;;5069764;28;20039;-54
2021/05/27 10:30:24;;;;;;;11.38;3.20;;;18.70;60.40;;;;;;5071562;28;20078;-56
2021/05/27 10:32:58;;;;;;;16.15;2.97;;;18.70;60.70;;;;;;5066450;28;20032;-58
2021/05/27 10:35:48;;;;;;;13.75;2.53;;;18.60;61.90;;;;;;5071283;28;20516;-63
2021/05/27 10:38:17;;;;;;;7.45;3.30;;;18.60;61.70;;;;;;5061128;28;20368;-54
2021/05/27 10:40:51;;;;;;;15.25;2.95;;;18.60;60.60;;;;;;5069276;28;20109;-62
2021/05/27 10:43:18;;;;;;;9.35;2.65;;;18.50;60.10;;;;;;5071443;28;20534;-56
2021/05/27 10:45:58;;;;;;;8.90;2.80;;;18.50;60.90;;;;;;5062280;28;20028;-65
2021/05/27 10:48:30;;;;;;;10.55;2.90;;;18.40;59.70;;;;;;5071348;28;20637;-64
2021/05/27 10:53:37;;;;;;;14.82;3.30;;;18.40;58.80;;;;;;5067299;28;20028;-46
2021/05/27 10:56:11;;;;;;;17.45;4.10;;;18.40;60.30;;;;;;5071708;28;20020;-53
2021/05/27 11:01:17;;;;;;;20.65;5.85;;;18.30;61.00;;;;;;5072344;28;20032;-52
2021/05/27 11:03:50;;;;;;;25.67;8.00;;;18.30;61.50;;;;;;5072240;28;20685;-50
2021/05/27 11:06:20;;;;;;;21.88;6.75;;;18.30;61.60;;;;;;5072687;28;20021;-49
2021/05/27 11:08:49;;;;;;;29.27;8.32;;;18.30;61.90;;;;;;5068216;28;20035;-49
2021/05/27 11:11:52;;;;;;;26.55;7.78;;;18.30;62.10;;;;;;5075326;28;20106;-48
2021/05/27 11:14:19;;;;;;;;;;;18.30;62.20;;;;;;5071183;28;20111;-45
2021/05/27 11:17:12;;;;;;;23.45;7.95;;;18.30;62.40;;;;;;5071860;28;19915;-46
2021/05/27 11:25:12;;;;;;;27.45;8.43;;;18.20;62.80;;;;;;5054461;28;20097;-57
2021/05/27 11:28:11;;;;;;;28.13;8.50;;;18.20;63.10;;;;;;5067258;28;20562;-57
2021/05/27 11:30:45;;;;;;;26.60;8.50;;;18.20;63.30;;;;;;5048547;28;20047;-57
2021/05/27 11:33:29;;;;;;;22.83;8.13;;;18.20;63.20;;;;;;5071621;28;20024;-57
2021/05/27 11:36:01;;;;;;;30.08;9.55;;;18.20;63.20;;;;;;5068042;28;20036;-50
2021/05/27 11:38:34;;;;;;;26.60;8.93;;;18.10;62.60;;;;;;5065185;28;20037;-54
2021/05/27 11:41:11;;;;;;;29.70;8.82;;;18.10;63.20;;;;;;5071853;28;20028;-54
2021/05/27 11:43:41;;;;;;;26.65;8.27;;;18.00;63.00;;;;;;5069903;28;20068;-52
2021/05/27 11:46:29;;;;;;;26.45;8.85;;;18.00;63.40;;;;;;5072440;28;20025;-48
2021/05/27 11:48:58;;;;;;;29.98;9.65;;;18.00;63.70;;;;;;5068540;28;20090;-55
2021/05/27 11:51:37;;;;;;;28.38;9.50;;;18.00;63.90;;;;;;5071675;28;20028;-54
2021/05/27 11:54:10;;;;;;;35.88;9.98;;;18.00;63.80;;;;;;5069511;28;20039;-56
2021/05/27 11:56:43;;;;;;;22.40;8.60;;;18.00;63.90;;;;;;5070550;28;20410;-54
2021/05/27 11:59:13;;;;;;;27.88;8.93;;;18.00;63.90;;;;;;5068417;28;20024;-59
2021/05/27 12:01:45;;;;;;;20.85;8.95;;;18.00;64.00;;;;;;5070333;28;20043;-56
2021/05/27 12:04:18;;;;;;;26.73;8.52;;;17.90;64.10;;;;;;5071968;28;20074;-57
2021/05/27 12:06:54;;;;;;;24.10;8.20;;;17.90;63.90;;;;;;5071945;28;20036;-58
2021/05/27 12:09:39;;;;;;;22.20;7.80;;;17.90;64.00;;;;;;5067309;28;20032;-54
2021/05/27 12:12:31;;;;;;;22.52;7.78;;;17.90;64.10;;;;;;5071439;28;20376;-56
2021/05/27 12:15:02;;;;;;;19.63;8.02;;;17.90;64.00;;;;;;5070769;28;20126;-55
2021/05/27 12:17:39;;;;;;;19.90;8.00;;;17.90;64.00;;;;;;5066562;28;21605;-51
2021/05/27 12:20:09;;;;;;;17.90;8.13;;;17.90;64.00;;;;;;5070412;28;20273;-52
2021/05/27 12:23:08;;;;;;;17.92;7.68;;;17.90;64.00;;;;;;5067179;28;20024;-49
2021/05/27 12:25:46;;;;;;;19.48;7.63;;;17.90;64.20;;;;;;5067718;28;20028;-47
2021/05/27 12:28:15;;;;;;;21.80;7.43;;;17.90;64.00;;;;;;5068123;28;20048;-45
2021/05/27 12:30:45;;;;;;;23.50;7.22;;;17.90;64.00;;;;;;5070604;28;20025;-58
2021/05/27 12:33:19;;;;;;;17.42;7.20;;;17.80;63.90;;;;;;5070648;28;20066;-53
2021/05/27 12:35:46;;;;;;;21.52;7.43;;;17.80;63.80;;;;;;5068882;28;20031;-52
2021/05/27 12:38:28;;;;;;;24.02;7.30;;;17.80;64.00;;;;;;5067684;28;20033;-51
2021/05/27 12:41:00;;;;;;;17.08;7.05;;;17.80;64.10;;;;;;5070355;28;20498;-59
2021/05/27 12:43:41;;;;;;;13.35;6.10;;;17.80;64.20;;;;;;5070367;28;20041;-53
2021/05/27 12:46:10;;;;;;;19.92;7.68;;;17.80;64.30;;;;;;5071940;28;20037;-53
2021/05/27 12:48:51;;;;;;;16.35;6.80;;;17.80;64.10;;;;;;5066725;28;20028;-53
2021/05/27 12:51:20;;;;;;;13.77;6.68;;;17.70;64.10;;;;;;5070989;28;20493;-53
2021/05/27 12:53:48;;;;;;;14.80;6.10;;;17.70;64.00;;;;;;5066867;28;20178;-52
2021/05/27 12:56:29;;;;;;;14.70;6.00;;;17.70;64.00;;;;;;5068742;28;20021;-47
2021/05/27 12:59:03;;;;;;;14.30;6.40;;;17.70;63.90;;;;;;5066822;28;20390;-53
2021/05/27 13:01:40;;;;;;;13.95;6.28;;;17.70;64.00;;;;;;5069310;28;20020;-54
2021/05/27 13:04:28;;;;;;;14.23;5.90;;;17.70;64.20;;;;;;5069310;28;20481;-46
2021/05/27 13:07:10;;;;;;;13.13;5.90;;;17.70;64.20;;;;;;5069101;28;20082;-50
2021/05/27 13:09:48;;;;;;;13.63;5.75;;;17.60;64.20;;;;;;5069657;28;20020;-54
2021/05/27 13:12:20;;;;;;;16.35;5.07;;;17.60;64.20;;;;;;5069871;28;20101;-50
2021/05/27 13:15:04;;;;;;;13.25;5.93;;;17.60;64.30;;;;;;5068694;28;20060;-62
2021/05/27 13:17:31;;;;;;;13.43;5.45;;;17.60;64.40;;;;;;5073106;28;20028;-59
2021/05/27 13:19:59;;;;;;;13.88;5.45;;;17.60;64.50;;;;;;5058188;28;20034;-57
2021/05/27 13:22:29;;;;;;;12.35;5.03;;;17.50;64.40;;;;;;5072405;28;20108;-58
2021/05/27 13:25:11;;;;;;;12.18;5.15;;;17.50;64.50;;;;;;5072992;28;20040;-63